sensor_id;sensor_type;location;lat;lon;timestamp;temperature;humidity
84432;DHT22;74658;51.736;7.038;2024-01-15T00:00:52;0.9;
84432;DHT22;74658;51.736;7.038;2024-01-15T00:05:52;1;
84432;DHT22;74658;51.736;7.038;2024-01-15T00:10:53;1;
84432;DHT22;74658;51.736;7.038;2024-01-15T00:15:54;1;
84432;DHT22;74658;51.736;7.038;2024-01-15T00:20:54;1;
84432;DHT22;74658;51.736;7.038;2024-01-15T00:25:55;1.1;
84432;DHT22;74658;51.736;7.038;2024-01-15T00:30:55;1.1;
84432;DHT22;74658;51.736;7.038;2024-01-15T00:35:56;1.1;
84432;DHT22;74658;51.736;7.038;2024-01-15T00:40:57;1.1;
84432;DHT22;74658;51.736;7.038;2024-01-15T00:45:57;1.2;
84432;DHT22;74658;51.736;7.038;2024-01-15T00:50:58;1.2;
84432;DHT22;74658;51.736;7.038;2024-01-15T00:55:59;1.2;
84432;DHT22;74658;51.736;7.038;2024-01-15T01:00:59;1.2;
84432;DHT22;74658;51.736;7.038;2024-01-15T01:06:00;1.2;
84432;DHT22;74658;51.736;7.038;2024-01-15T01:11:00;1.2;
84432;DHT22;74658;51.736;7.038;2024-01-15T01:16:01;1.2;
84432;DHT22;74658;51.736;7.038;2024-01-15T01:21:02;1.2;
84432;DHT22;74658;51.736;7.038;2024-01-15T01:26:02;1.2;
84432;DHT22;74658;51.736;7.038;2024-01-15T01:31:03;1.1;
84432;DHT22;74658;51.736;7.038;2024-01-15T01:36:07;1.2;
84432;DHT22;74658;51.736;7.038;2024-01-15T01:41:04;1.1;
84432;DHT22;74658;51.736;7.038;2024-01-15T01:46:05;1.1;
84432;DHT22;74658;51.736;7.038;2024-01-15T01:51:05;1.1;
84432;DHT22;74658;51.736;7.038;2024-01-15T01:56:06;1.1;
84432;DHT22;74658;51.736;7.038;2024-01-15T02:01:07;1.1;
84432;DHT22;74658;51.736;7.038;2024-01-15T02:06:07;1;
84432;DHT22;74658;51.736;7.038;2024-01-15T02:11:08;1.1;
84432;DHT22;74658;51.736;7.038;2024-01-15T02:16:08;1;
84432;DHT22;74658;51.736;7.038;2024-01-15T02:21:09;1.1;
84432;DHT22;74658;51.736;7.038;2024-01-15T02:26:11;1;
84432;DHT22;74658;51.736;7.038;2024-01-15T02:31:10;1.1;
84432;DHT22;74658;51.736;7.038;2024-01-15T02:36:11;1.1;
84432;DHT22;74658;51.736;7.038;2024-01-15T02:41:11;1.1;
84432;DHT22;74658;51.736;7.038;2024-01-15T02:46:12;1;
84432;DHT22;74658;51.736;7.038;2024-01-15T02:51:13;1;
84432;DHT22;74658;51.736;7.038;2024-01-15T02:56:13;1;
84432;DHT22;74658;51.736;7.038;2024-01-15T03:01:14;1;
84432;DHT22;74658;51.736;7.038;2024-01-15T03:06:14;1;
84432;DHT22;74658;51.736;7.038;2024-01-15T03:11:15;1;
84432;DHT22;74658;51.736;7.038;2024-01-15T03:16:16;1;
84432;DHT22;74658;51.736;7.038;2024-01-15T03:21:16;1;
84432;DHT22;74658;51.736;7.038;2024-01-15T03:26:17;1;
84432;DHT22;74658;51.736;7.038;2024-01-15T03:31:17;1.1;
84432;DHT22;74658;51.736;7.038;2024-01-15T03:36:18;1.1;
84432;DHT22;74658;51.736;7.038;2024-01-15T03:41:19;1;
84432;DHT22;74658;51.736;7.038;2024-01-15T03:46:19;1;
84432;DHT22;74658;51.736;7.038;2024-01-15T03:51:20;0.9;
84432;DHT22;74658;51.736;7.038;2024-01-15T03:56:21;0.9;
84432;DHT22;74658;51.736;7.038;2024-01-15T04:01:21;0.9;
84432;DHT22;74658;51.736;7.038;2024-01-15T04:06:22;0.8;
84432;DHT22;74658;51.736;7.038;2024-01-15T04:11:22;0.8;
84432;DHT22;74658;51.736;7.038;2024-01-15T04:16:23;0.8;
84432;DHT22;74658;51.736;7.038;2024-01-15T04:21:23;0.8;
84432;DHT22;74658;51.736;7.038;2024-01-15T04:26:24;0.7;
84432;DHT22;74658;51.736;7.038;2024-01-15T04:31:25;0.7;
84432;DHT22;74658;51.736;7.038;2024-01-15T04:36:25;0.8;
84432;DHT22;74658;51.736;7.038;2024-01-15T04:41:26;0.7;
84432;DHT22;74658;51.736;7.038;2024-01-15T04:46:27;0.7;
84432;DHT22;74658;51.736;7.038;2024-01-15T04:51:27;0.7;
84432;DHT22;74658;51.736;7.038;2024-01-15T04:56:28;0.8;
84432;DHT22;74658;51.736;7.038;2024-01-15T05:01:31;0.7;
84432;DHT22;74658;51.736;7.038;2024-01-15T05:06:29;0.7;
84432;DHT22;74658;51.736;7.038;2024-01-15T05:11:30;0.8;
84432;DHT22;74658;51.736;7.038;2024-01-15T05:16:30;0.8;
84432;DHT22;74658;51.736;7.038;2024-01-15T05:21:31;0.8;
84432;DHT22;74658;51.736;7.038;2024-01-15T05:26:31;0.9;
84432;DHT22;74658;51.736;7.038;2024-01-15T05:31:32;0.9;
84432;DHT22;74658;51.736;7.038;2024-01-15T05:36:33;0.9;
84432;DHT22;74658;51.736;7.038;2024-01-15T05:41:33;0.9;
84432;DHT22;74658;51.736;7.038;2024-01-15T05:46:34;0.9;
84432;DHT22;74658;51.736;7.038;2024-01-15T05:51:34;1;
84432;DHT22;74658;51.736;7.038;2024-01-15T05:56:35;1;
84432;DHT22;74658;51.736;7.038;2024-01-15T06:01:36;1;
84432;DHT22;74658;51.736;7.038;2024-01-15T06:06:36;1;
84432;DHT22;74658;51.736;7.038;2024-01-15T06:11:37;1;
84432;DHT22;74658;51.736;7.038;2024-01-15T06:16:38;1;
84432;DHT22;74658;51.736;7.038;2024-01-15T06:21:38;1;
84432;DHT22;74658;51.736;7.038;2024-01-15T06:26:39;1;
84432;DHT22;74658;51.736;7.038;2024-01-15T06:31:39;1.1;
84432;DHT22;74658;51.736;7.038;2024-01-15T06:36:40;1.1;
84432;DHT22;74658;51.736;7.038;2024-01-15T06:41:40;1.1;
84432;DHT22;74658;51.736;7.038;2024-01-15T06:46:42;1.1;
84432;DHT22;74658;51.736;7.038;2024-01-15T06:51:42;1.1;
84432;DHT22;74658;51.736;7.038;2024-01-15T06:56:42;1.1;
84432;DHT22;74658;51.736;7.038;2024-01-15T07:01:43;1.1;
84432;DHT22;74658;51.736;7.038;2024-01-15T07:06:44;1.1;
84432;DHT22;74658;51.736;7.038;2024-01-15T07:11:44;1.1;
84432;DHT22;74658;51.736;7.038;2024-01-15T07:16:45;1.1;
84432;DHT22;74658;51.736;7.038;2024-01-15T07:21:45;1.1;
84432;DHT22;74658;51.736;7.038;2024-01-15T07:26:46;1.1;
84432;DHT22;74658;51.736;7.038;2024-01-15T07:31:49;1.1;
84432;DHT22;74658;51.736;7.038;2024-01-15T07:36:47;1.2;
84432;DHT22;74658;51.736;7.038;2024-01-15T07:41:48;1.2;
84432;DHT22;74658;51.736;7.038;2024-01-15T07:46:49;1.2;
84432;DHT22;74658;51.736;7.038;2024-01-15T07:51:49;1.2;
84432;DHT22;74658;51.736;7.038;2024-01-15T07:56:53;1.2;
84432;DHT22;74658;51.736;7.038;2024-01-15T08:01:51;1.2;
84432;DHT22;74658;51.736;7.038;2024-01-15T08:06:52;1.1;
84432;DHT22;74658;51.736;7.038;2024-01-15T08:11:52;1.1;
84432;DHT22;74658;51.736;7.038;2024-01-15T08:16:52;1.2;
84432;DHT22;74658;51.736;7.038;2024-01-15T08:21:53;1.1;
84432;DHT22;74658;51.736;7.038;2024-01-15T08:26:55;1.1;
84432;DHT22;74658;51.736;7.038;2024-01-15T08:31:54;1.2;
84432;DHT22;74658;51.736;7.038;2024-01-15T08:36:55;1.2;
84432;DHT22;74658;51.736;7.038;2024-01-15T08:41:55;1.2;
84432;DHT22;74658;51.736;7.038;2024-01-15T08:46:56;1.2;
84432;DHT22;74658;51.736;7.038;2024-01-15T08:51:57;1.2;
84432;DHT22;74658;51.736;7.038;2024-01-15T08:56:57;1.2;
84432;DHT22;74658;51.736;7.038;2024-01-15T09:01:58;1.2;
84432;DHT22;74658;51.736;7.038;2024-01-15T09:06:58;1.2;
84432;DHT22;74658;51.736;7.038;2024-01-15T09:11:59;1.1;
84432;DHT22;74658;51.736;7.038;2024-01-15T09:17:00;1.2;
84432;DHT22;74658;51.736;7.038;2024-01-15T09:22:00;1.2;
84432;DHT22;74658;51.736;7.038;2024-01-15T09:27:01;1.3;
84432;DHT22;74658;51.736;7.038;2024-01-15T09:32:02;1.3;
84432;DHT22;74658;51.736;7.038;2024-01-15T09:37:02;1.3;
84432;DHT22;74658;51.736;7.038;2024-01-15T09:42:03;1.2;
84432;DHT22;74658;51.736;7.038;2024-01-15T09:47:04;1.2;
84432;DHT22;74658;51.736;7.038;2024-01-15T09:52:04;1.3;
84432;DHT22;74658;51.736;7.038;2024-01-15T09:57:05;1.3;
84432;DHT22;74658;51.736;7.038;2024-01-15T10:02:06;1.2;
84432;DHT22;74658;51.736;7.038;2024-01-15T10:07:08;1.3;
84432;DHT22;74658;51.736;7.038;2024-01-15T10:12:07;1.4;
84432;DHT22;74658;51.736;7.038;2024-01-15T10:17:12;1.3;
84432;DHT22;74658;51.736;7.038;2024-01-15T10:22:08;1.3;
84432;DHT22;74658;51.736;7.038;2024-01-15T10:27:12;1.3;
84432;DHT22;74658;51.736;7.038;2024-01-15T10:32:11;1.4;
84432;DHT22;74658;51.736;7.038;2024-01-15T10:37:11;1.6;
84432;DHT22;74658;51.736;7.038;2024-01-15T10:42:11;1.8;
84432;DHT22;74658;51.736;7.038;2024-01-15T10:47:12;1.9;
84432;DHT22;74658;51.736;7.038;2024-01-15T10:52:13;1.7;
84432;DHT22;74658;51.736;7.038;2024-01-15T10:57:14;1.8;
84432;DHT22;74658;51.736;7.038;2024-01-15T11:02:14;2;
84432;DHT22;74658;51.736;7.038;2024-01-15T11:07:14;2.3;
84432;DHT22;74658;51.736;7.038;2024-01-15T11:12:16;2.5;
84432;DHT22;74658;51.736;7.038;2024-01-15T11:17:16;2.2;
84432;DHT22;74658;51.736;7.038;2024-01-15T11:22:48;2.4;
84432;DHT22;74658;51.736;7.038;2024-01-15T11:27:39;2.6;
84432;DHT22;74658;51.736;7.038;2024-01-15T11:32:17;2.6;
84432;DHT22;74658;51.736;7.038;2024-01-15T11:37:18;2.6;
84432;DHT22;74658;51.736;7.038;2024-01-15T11:42:29;2.3;
84432;DHT22;74658;51.736;7.038;2024-01-15T11:47:44;2.1;
84432;DHT22;74658;51.736;7.038;2024-01-15T11:52:20;2.1;
84432;DHT22;74658;51.736;7.038;2024-01-15T11:57:25;2.1;
84432;DHT22;74658;51.736;7.038;2024-01-15T12:02:21;2.2;
84432;DHT22;74658;51.736;7.038;2024-01-15T12:07:21;2.5;
84432;DHT22;74658;51.736;7.038;2024-01-15T12:12:29;2.4;
84432;DHT22;74658;51.736;7.038;2024-01-15T12:17:23;2.2;
84432;DHT22;74658;51.736;7.038;2024-01-15T12:22:23;2.7;
84432;DHT22;74658;51.736;7.038;2024-01-15T12:27:24;2.3;
84432;DHT22;74658;51.736;7.038;2024-01-15T12:32:25;2.4;
84432;DHT22;74658;51.736;7.038;2024-01-15T12:37:25;2.4;
84432;DHT22;74658;51.736;7.038;2024-01-15T12:42:27;2.7;
84432;DHT22;74658;51.736;7.038;2024-01-15T12:47:26;2.5;
84432;DHT22;74658;51.736;7.038;2024-01-15T12:52:27;2.4;
84432;DHT22;74658;51.736;7.038;2024-01-15T12:57:27;2.3;
84432;DHT22;74658;51.736;7.038;2024-01-15T13:02:28;2.2;
84432;DHT22;74658;51.736;7.038;2024-01-15T13:07:29;2.2;
84432;DHT22;74658;51.736;7.038;2024-01-15T13:12:29;2.4;
84432;DHT22;74658;51.736;7.038;2024-01-15T13:17:30;2.5;
84432;DHT22;74658;51.736;7.038;2024-01-15T13:22:30;2.4;
84432;DHT22;74658;51.736;7.038;2024-01-15T13:27:31;2.3;
84432;DHT22;74658;51.736;7.038;2024-01-15T13:32:31;2.2;
84432;DHT22;74658;51.736;7.038;2024-01-15T13:37:32;2.5;
84432;DHT22;74658;51.736;7.038;2024-01-15T13:42:33;2.3;
84432;DHT22;74658;51.736;7.038;2024-01-15T13:47:33;2.1;
84432;DHT22;74658;51.736;7.038;2024-01-15T13:52:34;2;
84432;DHT22;74658;51.736;7.038;2024-01-15T13:57:34;2;
84432;DHT22;74658;51.736;7.038;2024-01-15T14:02:35;2;
84432;DHT22;74658;51.736;7.038;2024-01-15T14:07:36;2;
84432;DHT22;74658;51.736;7.038;2024-01-15T14:12:37;2.1;
84432;DHT22;74658;51.736;7.038;2024-01-15T14:17:37;2.1;
84432;DHT22;74658;51.736;7.038;2024-01-15T14:22:38;2;
84432;DHT22;74658;51.736;7.038;2024-01-15T14:27:38;1.8;
84432;DHT22;74658;51.736;7.038;2024-01-15T14:32:39;1.7;
84432;DHT22;74658;51.736;7.038;2024-01-15T14:37:40;1.6;
84432;DHT22;74658;51.736;7.038;2024-01-15T14:42:40;1.5;
84432;DHT22;74658;51.736;7.038;2024-01-15T14:47:41;1.5;
84432;DHT22;74658;51.736;7.038;2024-01-15T14:52:41;1.4;
84432;DHT22;74658;51.736;7.038;2024-01-15T14:57:42;1.4;
84432;DHT22;74658;51.736;7.038;2024-01-15T15:02:43;1.3;
84432;DHT22;74658;51.736;7.038;2024-01-15T15:07:43;1.2;
84432;DHT22;74658;51.736;7.038;2024-01-15T15:12:44;1.1;
84432;DHT22;74658;51.736;7.038;2024-01-15T15:17:44;1;
84432;DHT22;74658;51.736;7.038;2024-01-15T15:22:45;1;
84432;DHT22;74658;51.736;7.038;2024-01-15T15:27:46;1;
84432;DHT22;74658;51.736;7.038;2024-01-15T15:32:46;0.9;
84432;DHT22;74658;51.736;7.038;2024-01-15T15:37:47;0.9;
84432;DHT22;74658;51.736;7.038;2024-01-15T15:42:48;0.9;
84432;DHT22;74658;51.736;7.038;2024-01-15T15:47:48;0.9;
84432;DHT22;74658;51.736;7.038;2024-01-15T15:52:49;0.8;
84432;DHT22;74658;51.736;7.038;2024-01-15T15:57:49;0.7;
84432;DHT22;74658;51.736;7.038;2024-01-15T16:02:50;0.7;
84432;DHT22;74658;51.736;7.038;2024-01-15T16:07:50;0.7;
84432;DHT22;74658;51.736;7.038;2024-01-15T16:12:51;0.6;
84432;DHT22;74658;51.736;7.038;2024-01-15T16:17:52;0.6;
84432;DHT22;74658;51.736;7.038;2024-01-15T16:22:52;0.6;
84432;DHT22;74658;51.736;7.038;2024-01-15T16:27:53;0.5;
84432;DHT22;74658;51.736;7.038;2024-01-15T16:32:59;0.5;
84432;DHT22;74658;51.736;7.038;2024-01-15T16:37:55;0.5;
84432;DHT22;74658;51.736;7.038;2024-01-15T16:42:56;0.6;
84432;DHT22;74658;51.736;7.038;2024-01-15T16:47:56;0.5;
84432;DHT22;74658;51.736;7.038;2024-01-15T16:52:57;0.6;
84432;DHT22;74658;51.736;7.038;2024-01-15T16:57:58;0.7;
84432;DHT22;74658;51.736;7.038;2024-01-15T17:02:58;0.7;
84432;DHT22;74658;51.736;7.038;2024-01-15T17:07:59;0.7;
84432;DHT22;74658;51.736;7.038;2024-01-15T17:12:59;0.8;
84432;DHT22;74658;51.736;7.038;2024-01-15T17:18:00;0.8;
84432;DHT22;74658;51.736;7.038;2024-01-15T17:23:01;0.9;
84432;DHT22;74658;51.736;7.038;2024-01-15T17:28:01;0.9;
84432;DHT22;74658;51.736;7.038;2024-01-15T17:33:02;1;
84432;DHT22;74658;51.736;7.038;2024-01-15T17:38:03;1;
84432;DHT22;74658;51.736;7.038;2024-01-15T17:43:03;1;
84432;DHT22;74658;51.736;7.038;2024-01-15T17:48:04;1.1;
84432;DHT22;74658;51.736;7.038;2024-01-15T17:53:05;1.1;
84432;DHT22;74658;51.736;7.038;2024-01-15T17:58:05;1.1;
84432;DHT22;74658;51.736;7.038;2024-01-15T18:03:05;1.2;
84432;DHT22;74658;51.736;7.038;2024-01-15T18:08:06;1.2;
84432;DHT22;74658;51.736;7.038;2024-01-15T18:13:07;1.1;
84432;DHT22;74658;51.736;7.038;2024-01-15T18:18:07;1.1;
84432;DHT22;74658;51.736;7.038;2024-01-15T18:23:08;1.1;
84432;DHT22;74658;51.736;7.038;2024-01-15T18:28:09;1.1;
84432;DHT22;74658;51.736;7.038;2024-01-15T18:33:09;1.1;
84432;DHT22;74658;51.736;7.038;2024-01-15T18:38:10;1.2;
84432;DHT22;74658;51.736;7.038;2024-01-15T18:43:10;1.2;
84432;DHT22;74658;51.736;7.038;2024-01-15T18:48:11;1.1;
84432;DHT22;74658;51.736;7.038;2024-01-15T18:53:12;1;
84432;DHT22;74658;51.736;7.038;2024-01-15T18:58:13;1;
84432;DHT22;74658;51.736;7.038;2024-01-15T19:03:13;1;
84432;DHT22;74658;51.736;7.038;2024-01-15T19:08:14;1;
84432;DHT22;74658;51.736;7.038;2024-01-15T19:13:14;1.1;
84432;DHT22;74658;51.736;7.038;2024-01-15T19:18:15;1;
84432;DHT22;74658;51.736;7.038;2024-01-15T19:23:15;1.1;
84432;DHT22;74658;51.736;7.038;2024-01-15T19:28:16;1.1;
84432;DHT22;74658;51.736;7.038;2024-01-15T19:33:17;1;
84432;DHT22;74658;51.736;7.038;2024-01-15T19:38:17;0.9;
84432;DHT22;74658;51.736;7.038;2024-01-15T19:43:18;0.9;
84432;DHT22;74658;51.736;7.038;2024-01-15T19:48:19;0.9;
84432;DHT22;74658;51.736;7.038;2024-01-15T19:53:19;0.9;
84432;DHT22;74658;51.736;7.038;2024-01-15T19:58:20;0.9;
84432;DHT22;74658;51.736;7.038;2024-01-15T20:03:20;0.9;
84432;DHT22;74658;51.736;7.038;2024-01-15T20:08:21;1;
84432;DHT22;74658;51.736;7.038;2024-01-15T20:13:22;1;
84432;DHT22;74658;51.736;7.038;2024-01-15T20:18:22;0.9;
84432;DHT22;74658;51.736;7.038;2024-01-15T20:23:23;0.9;
84432;DHT22;74658;51.736;7.038;2024-01-15T20:28:33;0.8;
84432;DHT22;74658;51.736;7.038;2024-01-15T20:33:24;0.7;
84432;DHT22;74658;51.736;7.038;2024-01-15T20:38:25;0.6;
84432;DHT22;74658;51.736;7.038;2024-01-15T20:43:25;0.5;
84432;DHT22;74658;51.736;7.038;2024-01-15T20:48:26;0.5;
84432;DHT22;74658;51.736;7.038;2024-01-15T20:53:26;0.5;
84432;DHT22;74658;51.736;7.038;2024-01-15T20:58:27;0.4;
84432;DHT22;74658;51.736;7.038;2024-01-15T21:03:28;0.5;
84432;DHT22;74658;51.736;7.038;2024-01-15T21:08:28;0.6;
84432;DHT22;74658;51.736;7.038;2024-01-15T21:13:29;0.5;
84432;DHT22;74658;51.736;7.038;2024-01-15T21:18:30;0.6;
84432;DHT22;74658;51.736;7.038;2024-01-15T21:23:30;0.6;
84432;DHT22;74658;51.736;7.038;2024-01-15T21:28:31;0.7;
84432;DHT22;74658;51.736;7.038;2024-01-15T21:33:31;0.7;
84432;DHT22;74658;51.736;7.038;2024-01-15T21:38:32;0.8;
84432;DHT22;74658;51.736;7.038;2024-01-15T21:43:33;0.8;
84432;DHT22;74658;51.736;7.038;2024-01-15T21:48:33;0.8;
84432;DHT22;74658;51.736;7.038;2024-01-15T21:53:34;0.9;
84432;DHT22;74658;51.736;7.038;2024-01-15T21:58:34;0.9;
84432;DHT22;74658;51.736;7.038;2024-01-15T22:03:35;0.9;
84432;DHT22;74658;51.736;7.038;2024-01-15T22:08:36;0.8;
84432;DHT22;74658;51.736;7.038;2024-01-15T22:13:37;0.7;
84432;DHT22;74658;51.736;7.038;2024-01-15T22:18:37;0.7;
84432;DHT22;74658;51.736;7.038;2024-01-15T22:23:37;0.7;
84432;DHT22;74658;51.736;7.038;2024-01-15T22:28:38;0.7;
84432;DHT22;74658;51.736;7.038;2024-01-15T22:33:39;0.7;
84432;DHT22;74658;51.736;7.038;2024-01-15T22:38:39;0.7;
84432;DHT22;74658;51.736;7.038;2024-01-15T22:43:40;0.7;
84432;DHT22;74658;51.736;7.038;2024-01-15T22:48:40;0.7;
84432;DHT22;74658;51.736;7.038;2024-01-15T22:53:41;0.7;
84432;DHT22;74658;51.736;7.038;2024-01-15T22:58:42;0.7;
84432;DHT22;74658;51.736;7.038;2024-01-15T23:03:42;0.7;
84432;DHT22;74658;51.736;7.038;2024-01-15T23:08:43;0.7;
84432;DHT22;74658;51.736;7.038;2024-01-15T23:13:44;0.7;
84432;DHT22;74658;51.736;7.038;2024-01-15T23:18:47;0.7;
84432;DHT22;74658;51.736;7.038;2024-01-15T23:23:46;0.7;
84432;DHT22;74658;51.736;7.038;2024-01-15T23:28:47;0.7;
84432;DHT22;74658;51.736;7.038;2024-01-15T23:33:47;0.7;
84432;DHT22;74658;51.736;7.038;2024-01-15T23:38:48;0.7;
84432;DHT22;74658;51.736;7.038;2024-01-15T23:43:48;0.6;
84432;DHT22;74658;51.736;7.038;2024-01-15T23:48:49;0.7;
84432;DHT22;74658;51.736;7.038;2024-01-15T23:53:49;0.7;
84432;DHT22;74658;51.736;7.038;2024-01-15T23:58:50;0.7;
